createdAt,value
2022-11-25T00:02:35.517Z,98101.65
2022-11-25T00:05:37.252Z,98104.27
2022-11-25T00:08:40.221Z,98098.46
2022-11-25T00:11:42.333Z,98094.54
2022-11-25T00:14:43.916Z,98097.71
2022-11-25T00:17:45.545Z,98095.52
2022-11-25T00:20:47.126Z,98096.31
2022-11-25T00:24:07.406Z,98100.44
2022-11-25T00:27:08.952Z,98101.98
2022-11-25T00:30:10.940Z,98107.17
2022-11-25T00:33:12.565Z,98110.36
2022-11-25T00:36:19.836Z,98114.34
2022-11-25T00:39:23.902Z,98121.86
2022-11-25T00:42:44.113Z,98125.66
2022-11-25T00:45:45.707Z,98124.33
2022-11-25T00:48:47.324Z,98124.89
2022-11-25T00:51:48.924Z,98128.84
2022-11-25T00:54:51.068Z,98132.12
2022-11-25T00:57:52.648Z,98130.96
2022-11-25T01:00:54.269Z,98129.29
2022-11-25T01:03:56.117Z,98127.27
2022-11-25T01:06:59.392Z,98128.61
2022-11-25T01:10:00.950Z,98130.37
2022-11-25T01:13:02.648Z,98134.51
2022-11-25T01:16:06.033Z,98133.91
2022-11-25T01:19:08.039Z,98132.45
2022-11-25T01:22:09.781Z,98132.98
2022-11-25T01:25:11.451Z,98132.45
2022-11-25T01:28:13.341Z,98132.84
2022-11-25T01:31:17.671Z,98133.33
2022-11-25T01:34:21.470Z,98128.67
2022-11-25T01:37:23.077Z,98129.39
2022-11-25T01:40:24.681Z,98128.23
2022-11-25T01:43:27.209Z,98128.39
2022-11-25T01:46:36.283Z,98131.75
2022-11-25T01:49:44.186Z,98131.20
2022-11-25T01:52:50.025Z,98128.34
2022-11-25T01:55:58.147Z,98121.67
2022-11-25T01:58:59.785Z,98128.21
2022-11-25T02:02:01.949Z,98123.16
2022-11-25T02:05:08.225Z,98122.89
2022-11-25T02:08:10.037Z,98125.33
2022-11-25T02:11:13.869Z,98129.44
2022-11-25T02:14:17.282Z,98132.13
2022-11-25T02:17:19.810Z,98135.52
2022-11-25T02:20:22.833Z,98130.42
2022-11-25T02:24:20.200Z,98127.24
2022-11-25T02:27:22.015Z,98132.25
2022-11-25T02:30:23.647Z,98136.82
2022-11-25T02:33:26.773Z,98139.09
2022-11-25T02:36:30.833Z,98139.33
2022-11-25T02:39:32.381Z,98138.39
2022-11-25T02:42:34.127Z,98138.02
2022-11-25T02:45:50.104Z,98135.09
2022-11-25T02:49:08.537Z,98135.16
2022-11-25T02:52:11.342Z,98135.48
2022-11-25T02:55:12.941Z,98133.27
2022-11-25T02:58:15.654Z,98138.05
2022-11-25T03:01:17.389Z,98139.21
2022-11-25T03:04:19.163Z,98137.84
2022-11-25T03:07:20.876Z,98141.52
2022-11-25T03:10:22.615Z,98143.92
2022-11-25T03:13:24.152Z,98147.17
2022-11-25T03:16:25.674Z,98146.17
2022-11-25T03:19:27.376Z,98140.72
2022-11-25T03:22:29.294Z,98144.06
2022-11-25T03:25:31.411Z,98145.88
2022-11-25T03:28:32.986Z,98150.38
2022-11-25T03:31:34.566Z,98152.30
2022-11-25T03:34:36.733Z,98160.64
2022-11-25T03:37:38.910Z,98168.12
2022-11-25T03:40:41.321Z,98167.11
2022-11-25T03:43:43.671Z,98170.02
2022-11-25T03:46:45.471Z,98168.64
2022-11-25T03:49:47.593Z,98170.24
2022-11-25T03:52:49.310Z,98167.17
2022-11-25T03:55:51.980Z,98160.19
2022-11-25T03:58:55.083Z,98164.49
2022-11-25T04:01:57.016Z,98166.09
2022-11-25T04:04:58.799Z,98168.60
2022-11-25T04:08:00.492Z,98167.70
2022-11-25T04:11:02.303Z,98171.39
2022-11-25T04:14:06.011Z,98173.67
2022-11-25T04:17:07.824Z,98175.02
2022-11-25T04:20:11.944Z,98178.77
2022-11-25T04:23:14.184Z,98177.70
2022-11-25T04:26:20.557Z,98173.75
2022-11-25T04:29:22.755Z,98177.20
2022-11-25T04:32:24.650Z,98183.61
2022-11-25T04:35:26.701Z,98176.63
2022-11-25T04:38:29.127Z,98178.40
2022-11-25T04:41:32.743Z,98175.05
2022-11-25T04:44:34.627Z,98180.70
2022-11-25T04:47:36.682Z,98184.61
2022-11-25T04:50:38.272Z,98187.84
2022-11-25T04:53:45.062Z,98191.12
2022-11-25T04:56:47.270Z,98192.02
2022-11-25T04:59:49.076Z,98194.08
2022-11-25T05:02:50.699Z,98197.27
2022-11-25T05:05:55.035Z,98202.20
2022-11-25T05:08:57.358Z,98205.23
2022-11-25T05:11:59.852Z,98206.83
2022-11-25T05:15:01.831Z,98214.38
2022-11-25T05:18:03.602Z,98217.25
2022-11-25T05:21:32.534Z,98218.26
2022-11-25T05:24:34.675Z,98226.20
2022-11-25T05:27:37.366Z,98226.18
2022-11-25T05:30:44.646Z,98228.68
2022-11-25T05:33:46.298Z,98229.14
2022-11-25T05:36:49.383Z,98232.83
2022-11-25T05:39:51.637Z,98230.81
2022-11-25T05:43:22.903Z,98230.66
2022-11-25T05:46:24.607Z,98233.48
2022-11-25T05:49:29.075Z,98226.86
2022-11-25T05:52:31.331Z,98232.25
2022-11-25T05:55:33.709Z,98234.11
2022-11-25T05:58:35.941Z,98235.80
2022-11-25T06:01:38.006Z,98234.41
2022-11-25T06:04:39.835Z,98235.98
2022-11-25T06:07:41.572Z,98239.40
2022-11-25T06:10:43.409Z,98240.83
2022-11-25T06:13:45.233Z,98244.27
2022-11-25T06:16:47.171Z,98240.31
2022-11-25T06:19:55.434Z,98247.47
2022-11-25T06:22:58.040Z,98245.83
2022-11-25T06:26:11.597Z,98249.77
2022-11-25T06:29:14.348Z,98252.73
2022-11-25T06:32:17.651Z,98251.25
2022-11-25T06:35:42.009Z,98253.44
2022-11-25T06:38:49.436Z,98256.79
2022-11-25T06:41:51.071Z,98258.73
2022-11-25T06:44:53.413Z,98261.11
2022-11-25T06:47:55.051Z,98262.53
2022-11-25T06:51:23.914Z,98269.23
2022-11-25T06:54:25.486Z,98266.63
2022-11-25T06:57:27.248Z,98269.67
2022-11-25T07:00:28.896Z,98269.02
2022-11-25T07:03:31.124Z,98269.38
2022-11-25T07:06:33.263Z,98273.55
2022-11-25T07:09:34.865Z,98276.91
2022-11-25T07:12:36.676Z,98279.29
2022-11-25T07:15:38.260Z,98281.33
2022-11-25T07:18:40.869Z,98281.51
2022-11-25T07:21:44.943Z,98286.75
2022-11-25T07:24:46.562Z,98290.83
2022-11-25T07:27:48.226Z,98295.98
2022-11-25T07:34:20.129Z,98298.88
2022-11-25T07:37:21.759Z,98301.02
2022-11-25T07:40:23.286Z,98297.91
2022-11-25T07:43:24.803Z,98303.64
2022-11-25T07:46:35.802Z,98308.03
2022-11-25T07:49:37.644Z,98305.58
2022-11-25T07:52:40.269Z,98305.77
2022-11-25T07:55:41.872Z,98303.19
2022-11-25T07:58:46.162Z,98305.52
2022-11-25T08:01:50.207Z,98311.81
2022-11-25T08:04:51.929Z,98316.52
2022-11-25T08:07:53.703Z,98322.27
2022-11-25T08:10:55.576Z,98318.67
2022-11-25T08:13:57.420Z,98321.11
2022-11-25T08:16:59.098Z,98324.71
2022-11-25T08:20:00.797Z,98325.93
2022-11-25T08:23:05.391Z,98325.19
2022-11-25T08:26:10.746Z,98323.90
2022-11-25T08:29:15.101Z,98327.55
2022-11-25T08:32:16.748Z,98330.66
2022-11-25T08:35:19.355Z,98334.70
2022-11-25T08:38:21.263Z,98331.54
2022-11-25T08:41:35.558Z,98331.28
2022-11-25T08:44:37.532Z,98333.70
2022-11-25T08:47:39.226Z,98334.16
2022-11-25T08:50:46.794Z,98337.23
2022-11-25T08:53:50.618Z,98337.45
2022-11-25T08:56:52.257Z,98343.35
2022-11-25T08:59:53.873Z,98345.13
2022-11-25T09:02:56.018Z,98346.05
2022-11-25T09:05:57.959Z,98350.17
2022-11-25T09:09:01.079Z,98354.05
2022-11-25T09:12:03.278Z,98351.18
2022-11-25T09:15:05.446Z,98352.48
2022-11-25T09:18:09.134Z,98357.25
2022-11-25T09:21:14.614Z,98355.77
2022-11-25T09:24:16.325Z,98355.30
2022-11-25T09:27:17.888Z,98352.69
2022-11-25T09:30:19.577Z,98350.27
2022-11-25T09:33:21.234Z,98350.02
2022-11-25T09:36:24.264Z,98346.79
2022-11-25T09:39:30.045Z,98345.94
2022-11-25T09:43:06.286Z,98350.40
2022-11-25T09:46:38.914Z,98351.94
2022-11-25T09:49:47.643Z,98346.78
2022-11-25T09:53:08.475Z,98347.62
2022-11-25T09:56:46.567Z,98348.77
2022-11-25T10:00:01.109Z,98344.92
2022-11-25T10:03:38.908Z,98342.70
2022-11-25T10:06:56.609Z,98339.11
2022-11-25T10:10:02.594Z,98340.64
2022-11-25T10:13:08.506Z,98342.77
2022-11-25T10:16:26.310Z,98345.25
2022-11-25T10:20:00.395Z,98346.79
2022-11-25T10:23:28.010Z,98344.30
2022-11-25T10:26:37.668Z,98350.62
2022-11-25T10:29:39.224Z,98352.09
2022-11-25T10:32:44.970Z,98346.38
2022-11-25T10:35:51.796Z,98348.11
2022-11-25T10:39:23.712Z,98352.88
2022-11-25T10:42:28.001Z,98349.93
2022-11-25T10:45:40.022Z,98352.13
2022-11-25T10:48:53.600Z,98349.02
2022-11-25T10:51:57.256Z,98349.11
2022-11-25T10:55:11.440Z,98349.52
2022-11-25T11:01:47.514Z,98352.33
2022-11-25T11:05:08.913Z,98353.30
2022-11-25T11:08:19.111Z,98355.50
2022-11-25T11:11:23.029Z,98351.85
2022-11-25T11:14:29.242Z,98356.68
2022-11-25T11:17:36.758Z,98349.27
2022-11-25T11:20:48.851Z,98351.29
2022-11-25T11:23:55.015Z,98353.23
2022-11-25T11:27:04.596Z,98348.90
2022-11-25T11:30:15.298Z,98349.20
2022-11-25T11:33:43.008Z,98346.34
2022-11-25T11:36:50.636Z,98350.02
2022-11-25T11:40:21.535Z,98353.67
2022-11-25T11:44:05.434Z,98356.76
2022-11-25T11:47:16.059Z,98358.10
2022-11-25T11:50:31.950Z,98362.66
2022-11-25T11:53:53.993Z,98365.08
2022-11-25T11:57:06.901Z,98365.55
2022-11-25T12:00:12.112Z,98368.34
2022-11-25T12:03:22.167Z,98375.48
2022-11-25T12:06:27.517Z,98375.68
2022-11-25T12:09:32.066Z,98372.41
2022-11-25T12:12:40.173Z,98374.27
2022-11-25T12:15:46.926Z,98375.26
2022-11-25T12:18:54.400Z,98369.31
2022-11-25T12:21:55.986Z,98369.65
2022-11-25T12:25:08.409Z,98371.27
2022-11-25T12:28:24.321Z,98372.42
2022-11-25T12:31:34.577Z,98366.16
2022-11-25T12:34:43.999Z,98367.88
2022-11-25T12:38:04.523Z,98373.29
2022-11-25T12:41:18.708Z,98373.44
2022-11-25T12:44:37.154Z,98376.09
2022-11-25T12:47:39.037Z,98375.00
2022-11-25T12:50:59.034Z,98372.65
2022-11-25T12:54:04.818Z,98372.27
2022-11-25T12:57:25.436Z,98374.79
2022-11-25T13:00:46.099Z,98371.27
2022-11-25T13:03:50.894Z,98376.53
2022-11-25T13:06:52.545Z,98376.95
2022-11-25T13:10:19.525Z,98373.77
2022-11-25T13:13:33.255Z,98377.16
2022-11-25T13:16:35.493Z,98378.97
2022-11-25T13:19:37.552Z,98382.34
2022-11-25T13:22:39.272Z,98385.55
2022-11-25T13:25:42.944Z,98385.91
2022-11-25T13:28:45.003Z,98387.61
2022-11-25T13:31:58.742Z,98391.73
2022-11-25T13:35:31.074Z,98387.90
2022-11-25T13:38:49.146Z,98390.20
2022-11-25T13:42:04.772Z,98389.55
2022-11-25T13:45:29.251Z,98389.40
2022-11-25T13:48:36.404Z,98389.48
2022-11-25T13:51:48.871Z,98387.82
2022-11-25T13:54:54.973Z,98390.81
2022-11-25T13:58:26.222Z,98390.39
2022-11-25T14:01:30.256Z,98395.62
2022-11-25T14:04:51.569Z,98398.64
2022-11-25T14:08:19.127Z,98402.31
2022-11-25T14:11:43.360Z,98400.95
2022-11-25T14:15:04.968Z,98399.55
2022-11-25T14:19:03.149Z,98394.77
2022-11-25T14:22:07.165Z,98397.95
2022-11-25T14:25:29.527Z,98402.30
2022-11-25T14:28:51.512Z,98402.45
2022-11-25T14:31:58.020Z,98404.45
2022-11-25T14:35:03.523Z,98406.15
2022-11-25T14:38:12.967Z,98410.20
2022-11-25T14:41:27.765Z,98407.63
2022-11-25T14:44:45.773Z,98409.86
2022-11-25T14:47:47.535Z,98413.91
2022-11-25T14:51:00.785Z,98417.02
2022-11-25T14:54:06.851Z,98419.66
2022-11-25T14:57:08.797Z,98423.24
2022-11-25T15:00:14.845Z,98416.45
2022-11-25T15:03:19.499Z,98419.14
2022-11-25T15:06:21.690Z,98418.66
2022-11-25T15:09:27.067Z,98416.30
2022-11-25T15:12:32.340Z,98412.81
2022-11-25T15:15:34.211Z,98409.53
2022-11-25T15:18:36.746Z,98414.47
2022-11-25T15:22:07.547Z,98418.30
2022-11-25T15:25:13.800Z,98419.66
2022-11-25T15:28:16.135Z,98420.35
2022-11-25T15:31:20.380Z,98424.30
2022-11-25T15:34:23.455Z,98429.67
2022-11-25T15:37:25.456Z,98430.59
2022-11-25T15:40:37.534Z,98432.30
2022-11-25T15:43:44.493Z,98432.84
2022-11-25T15:47:05.252Z,98434.62
2022-11-25T15:50:28.091Z,98439.52
2022-11-25T15:53:36.166Z,98441.99
2022-11-25T15:56:43.889Z,98441.33
2022-11-25T15:59:45.821Z,98441.40
2022-11-25T16:02:47.491Z,98443.98
2022-11-25T16:05:56.477Z,98441.70
2022-11-25T16:09:00.347Z,98442.86
2022-11-25T16:12:06.567Z,98444.70
2022-11-25T16:15:17.738Z,98448.66
2022-11-25T16:18:39.767Z,98452.30
2022-11-25T16:21:50.533Z,98449.02
2022-11-25T16:25:00.400Z,98451.10
2022-11-25T16:28:03.972Z,98450.13
2022-11-25T16:31:05.747Z,98451.97
2022-11-25T16:34:18.770Z,98451.33
2022-11-25T16:37:20.395Z,98457.08
2022-11-25T16:40:23.708Z,98457.48
2022-11-25T16:43:27.834Z,98461.06
2022-11-25T16:46:29.639Z,98459.65
2022-11-25T16:49:31.761Z,98459.02
2022-11-25T16:52:33.369Z,98458.68
2022-11-25T16:55:36.096Z,98464.02
2022-11-25T16:58:37.671Z,98461.67
2022-11-25T17:01:39.465Z,98456.85
2022-11-25T17:04:41.117Z,98463.48
2022-11-25T17:07:42.882Z,98466.59
2022-11-25T17:10:45.463Z,98466.67
2022-11-25T17:13:50.212Z,98467.14
2022-11-25T17:16:51.905Z,98472.28
2022-11-25T17:19:53.630Z,98472.35
2022-11-25T17:22:55.338Z,98478.84
2022-11-25T17:25:57.233Z,98479.16
2022-11-25T17:29:02.422Z,98477.77
2022-11-25T17:32:06.707Z,98476.52
2022-11-25T17:35:18.172Z,98471.66
2022-11-25T17:38:21.079Z,98479.34
2022-11-25T17:41:27.459Z,98477.86
2022-11-25T17:44:32.787Z,98477.95
2022-11-25T17:47:34.443Z,98481.60
2022-11-25T17:51:07.119Z,98483.55
2022-11-25T17:54:03.233Z,98484.39
2022-11-25T17:57:16.712Z,98486.34
2022-11-25T18:00:52.975Z,98487.91
2022-11-25T18:03:56.594Z,98491.50
2022-11-25T18:06:58.172Z,98494.55
2022-11-25T18:09:59.759Z,98496.18
2022-11-25T18:13:42.839Z,98502.74
2022-11-25T18:17:06.077Z,98504.23
2022-11-25T18:20:23.314Z,98507.61
2022-11-25T18:23:24.956Z,98508.79
2022-11-25T18:26:26.669Z,98512.47
2022-11-25T18:29:29.448Z,98513.91
2022-11-25T18:32:31.092Z,98512.73
2022-11-25T18:35:36.575Z,98510.81
2022-11-25T18:38:42.083Z,98517.16
2022-11-25T18:41:45.970Z,98518.96
2022-11-25T18:44:47.661Z,98521.08
2022-11-25T18:47:49.351Z,98521.15
2022-11-25T18:50:54.191Z,98528.41
2022-11-25T18:53:55.749Z,98532.02
2022-11-25T18:56:57.359Z,98534.73
2022-11-25T19:00:30.588Z,98531.15
2022-11-25T19:03:24.165Z,98527.38
2022-11-25T19:06:29.265Z,98528.13
2022-11-25T19:09:31.068Z,98525.86
2022-11-25T19:12:32.738Z,98527.48
2022-11-25T19:15:36.651Z,98526.37
2022-11-25T19:18:38.761Z,98532.95
2022-11-25T19:21:40.519Z,98532.04
2022-11-25T19:24:42.330Z,98534.11
2022-11-25T19:27:56.849Z,98536.15
2022-11-25T19:31:00.702Z,98539.04
2022-11-25T19:34:02.881Z,98550.80
2022-11-25T19:37:04.678Z,98552.23
2022-11-25T19:40:13.571Z,98552.08
2022-11-25T19:43:15.194Z,98554.56
2022-11-25T19:46:25.676Z,98555.27
2022-11-25T19:49:30.908Z,98558.69
2022-11-25T19:52:37.114Z,98560.71
2022-11-25T19:55:38.762Z,98554.45
2022-11-25T19:58:40.301Z,98558.20
2022-11-25T20:01:44.715Z,98559.38
2022-11-25T20:04:48.442Z,98561.09
2022-11-25T20:07:51.368Z,98566.14
2022-11-25T20:10:53.302Z,98567.08
2022-11-25T20:13:56.473Z,98567.89
2022-11-25T20:17:00.157Z,98573.73
2022-11-25T20:20:28.780Z,98574.85
2022-11-25T20:23:43.983Z,98575.70
2022-11-25T20:26:55.162Z,98578.25
2022-11-25T20:29:59.989Z,98578.57
2022-11-25T20:33:01.858Z,98576.17
2022-11-25T20:36:09.769Z,98578.56
2022-11-25T20:39:18.699Z,98583.30
2022-11-25T20:42:21.758Z,98583.41
2022-11-25T20:45:23.767Z,98585.73
2022-11-25T20:48:26.447Z,98584.48
2022-11-25T20:51:37.361Z,98589.23
2022-11-25T20:54:39.143Z,98594.03
2022-11-25T20:57:41.169Z,98601.69
2022-11-25T21:00:42.891Z,98600.39
2022-11-25T21:03:45.606Z,98600.77
2022-11-25T21:06:47.245Z,98604.09
2022-11-25T21:09:49.128Z,98604.18
2022-11-25T21:12:51.665Z,98600.75
2022-11-25T21:15:53.529Z,98598.46
2022-11-25T21:18:55.233Z,98599.16
2022-11-25T21:21:57.104Z,98600.41
2022-11-25T21:24:58.761Z,98601.49
2022-11-25T21:28:01.339Z,98603.91
2022-11-25T21:31:07.017Z,98598.91
2022-11-25T21:34:13.121Z,98601.96
2022-11-25T21:37:17.550Z,98603.16
2022-11-25T21:40:40.279Z,98602.31
2022-11-25T21:43:44.393Z,98603.38
2022-11-25T21:46:46.107Z,98608.42
2022-11-25T21:49:48.797Z,98610.69
2022-11-25T21:52:50.541Z,98613.02
2022-11-25T21:55:52.678Z,98617.48
2022-11-25T21:58:56.412Z,98616.13
2022-11-25T22:02:01.434Z,98617.68
2022-11-25T22:05:14.142Z,98621.14
2022-11-25T22:08:16.694Z,98621.05
2022-11-25T22:11:21.383Z,98624.64
2022-11-25T22:14:33.881Z,98627.05
2022-11-25T22:17:35.727Z,98629.88
2022-11-25T22:20:37.549Z,98635.47
2022-11-25T22:23:41.891Z,98641.77
2022-11-25T22:26:46.225Z,98648.33
2022-11-25T22:29:48.712Z,98651.73
2022-11-25T22:32:59.173Z,98654.98
2022-11-25T22:36:01.919Z,98661.88
2022-11-25T22:39:25.780Z,98664.20
2022-11-25T22:42:30.771Z,98668.45
2022-11-25T22:45:33.749Z,98673.02
2022-11-25T22:48:38.032Z,98671.42
2022-11-25T22:51:39.754Z,98673.67
2022-11-25T22:54:41.446Z,98674.48
2022-11-25T22:57:43.606Z,98674.30
2022-11-25T23:00:46.892Z,98680.34
2022-11-25T23:03:48.813Z,98681.98
2022-11-25T23:06:51.156Z,98682.52
2022-11-25T23:09:53.448Z,98687.73
2022-11-25T23:12:55.870Z,98690.46
2022-11-25T23:16:03.335Z,98691.18
2022-11-25T23:19:06.258Z,98690.72
2022-11-25T23:22:11.702Z,98692.58
2022-11-25T23:25:17.397Z,98693.48
2022-11-25T23:28:19.211Z,98688.16
2022-11-25T23:31:20.854Z,98692.29
2022-11-25T23:34:22.507Z,98692.86
2022-11-25T23:37:24.090Z,98692.84
2022-11-25T23:40:26.370Z,98695.19
2022-11-25T23:43:27.835Z,98698.85
2022-11-25T23:46:32.743Z,98696.46
2022-11-25T23:49:43.438Z,98696.94
2022-11-25T23:52:45.288Z,98697.48
2022-11-25T23:55:47.168Z,98699.20
2022-11-25T23:58:51.777Z,98698.98
